Aviation Digital Data Service (ADDS)

Output produced by METARs form (0531 UTC 17 September 2014)
found at http://aviationweather.gov/adds/metars/
 
KDFW 170529Z 1706/1812 14009KT P6SM BKN150 
     TEMPO 1714/1717 BKN025 
     FM171700 18006KT P6SM VCSH SCT040 BKN140 
     FM180100 19005KT P6SM BKN150